Parkdale, Oregon
Current Conditions -  °F | °C
As of 9:59 PM on Sunday 25 Jan 2015 (Local Time) from K4S2 Reporting Station
Haze Haze  
Wind Chill: 43°   Ceiling: Unl
Heat Index: 43°   Visibility: 3mi
Dew Point: 41°   Wind: 0mph
Humidity: 93%   Direction: NA
Pressure: 30.13"   Gusts: NA
Location:  45.3977°N, 121.59°W
Report Text: K4S2 260559Z AUTO 00000KT 3SM BR SCT003 06/05 A3013 RMK AO2 SLP219 T00600050
Loading
Personal Weather Stations






























Interactive Weather Map New forecast layout! Learn more

10-Day Weather Forecast

Advertisements
Track Severe Weather on mobile